Time;durP1;ratioP1;P1;durP2;ratioP2;P2;SDS_P1;SDS_P2;PMS_P1;PMS_P2;Temp;Humidity;BMP_temperature;BMP_pressure;BME280_temperature;BME280_humidity;BME280_pressure;Samples;Min_cycle;Max_cycle;Signal;HPM_P1;HPM_P2
2023/12/08 00:00:48;;;;;;;6.38;5.18;;;8.40;99.90;;;;;;4130439;28;20124;-61
2023/12/08 00:02:50;;;;;;;6.15;4.38;;;8.40;99.90;;;;;;4130308;28;20513;-61
2023/12/08 00:04:54;;;;;;;8.18;5.13;;;8.50;99.90;;;;;;4147935;28;20073;-61
2023/12/08 00:06:56;;;;;;;7.57;4.90;;;8.50;99.90;;;;;;4147442;28;20409;-61
2023/12/08 00:08:58;;;;;;;6.95;5.38;;;8.50;99.90;;;;;;4130434;28;20458;-60
2023/12/08 00:11:01;;;;;;;5.55;4.82;;;8.50;99.90;;;;;;4147770;28;20125;-62
2023/12/08 00:13:05;;;;;;;8.27;5.68;;;8.50;99.90;;;;;;4147477;28;20050;-61
2023/12/08 00:15:09;;;;;;;7.63;5.63;;;8.60;99.90;;;;;;4147323;28;20054;-61
2023/12/08 00:17:11;;;;;;;7.20;5.13;;;8.50;99.90;;;;;;4147610;28;20050;-61
2023/12/08 00:19:13;;;;;;;8.70;5.68;;;8.70;99.90;;;;;;4147882;28;20046;-61
2023/12/08 00:21:16;;;;;;;8.75;5.88;;;8.70;99.90;;;;;;4147195;28;20052;-60
2023/12/08 00:23:18;;;;;;;7.05;4.78;;;8.60;99.90;;;;;;4147759;28;20050;-64
2023/12/08 00:25:20;;;;;;;7.75;4.88;;;8.70;99.90;;;;;;4147936;28;20073;-61
2023/12/08 00:27:23;;;;;;;8.70;6.65;;;8.80;99.90;;;;;;4130375;28;20105;-62
2023/12/08 00:29:26;;;;;;;9.05;5.43;;;8.80;99.90;;;;;;4147758;28;20497;-61
2023/12/08 00:31:28;;;;;;;6.35;5.22;;;8.90;99.90;;;;;;4147511;28;20052;-61
2023/12/08 00:33:31;;;;;;;8.95;5.35;;;8.90;99.90;;;;;;4147822;28;20477;-61
2023/12/08 00:35:33;;;;;;;8.93;5.78;;;8.90;99.90;;;;;;4148122;28;20042;-67
2023/12/08 00:37:36;;;;;;;7.38;6.03;;;9.00;99.90;;;;;;4146939;28;20136;-62
2023/12/08 00:39:40;;;;;;;10.10;6.45;;;9.10;99.90;;;;;;4147747;28;20115;-62
2023/12/08 00:41:42;;;;;;;10.77;7.40;;;9.10;99.90;;;;;;4147576;28;20121;-64
2023/12/08 00:43:45;;;;;;;8.90;5.82;;;9.10;99.90;;;;;;4147369;28;20068;-62
2023/12/08 00:45:47;;;;;;;8.07;6.10;;;9.20;99.90;;;;;;4147395;28;20073;-63
2023/12/08 00:47:49;;;;;;;8.02;5.43;;;9.20;99.90;;;;;;4147221;28;20512;-62
2023/12/08 00:49:52;;;;;;;6.88;4.97;;;9.20;99.90;;;;;;4147432;28;20125;-62
2023/12/08 00:51:54;;;;;;;10.55;4.90;;;9.30;99.90;;;;;;4130007;28;20050;-62
2023/12/08 00:53:56;;;;;;;6.95;5.68;;;9.20;99.90;;;;;;4148227;28;20056;-63
2023/12/08 00:55:59;;;;;;;8.70;6.25;;;9.10;99.90;;;;;;4149639;28;20053;-63
2023/12/08 00:58:01;;;;;;;4.80;4.07;;;9.20;99.90;;;;;;4148700;28;20053;-61
2023/12/08 01:00:05;;;;;;;4.82;3.50;;;9.10;99.90;;;;;;4147149;28;20061;-62
2023/12/08 01:02:08;;;;;;;4.65;4.05;;;9.10;99.90;;;;;;4147238;28;20104;-62
2023/12/08 01:04:10;;;;;;;4.47;3.45;;;9.10;99.90;;;;;;4147260;28;20052;-62
2023/12/08 01:06:12;;;;;;;5.93;4.13;;;9.20;99.90;;;;;;4146996;28;20056;-62
2023/12/08 01:08:14;;;;;;;3.75;2.78;;;9.20;99.90;;;;;;4146991;28;20069;-62
2023/12/08 01:10:16;;;;;;;5.25;2.97;;;9.20;99.90;;;;;;4147458;28;20077;-63
2023/12/08 01:12:18;;;;;;;3.95;3.22;;;9.20;99.90;;;;;;4147013;28;20404;-61
2023/12/08 01:14:20;;;;;;;6.20;4.38;;;9.20;99.90;;;;;;4147065;28;20500;-61
2023/12/08 01:16:23;;;;;;;6.05;3.17;;;9.20;99.90;;;;;;4147198;28;20053;-61
2023/12/08 01:18:25;;;;;;;4.18;3.50;;;9.30;99.90;;;;;;4147083;28;20125;-62
2023/12/08 01:20:27;;;;;;;3.88;2.67;;;9.40;99.90;;;;;;4146902;28;20065;-65
2023/12/08 01:22:30;;;;;;;4.15;2.67;;;9.40;99.90;;;;;;4129839;28;20141;-62
2023/12/08 01:24:32;;;;;;;5.80;3.60;;;9.50;99.90;;;;;;4146937;28;20060;-62
2023/12/08 01:26:34;;;;;;;3.17;2.40;;;9.40;99.90;;;;;;4147157;28;20563;-62
2023/12/08 01:28:36;;;;;;;4.22;2.47;;;9.40;99.90;;;;;;4150123;28;20124;-61
2023/12/08 01:30:38;;;;;;;3.50;2.42;;;9.40;99.90;;;;;;4150133;28;20489;-62
2023/12/08 01:32:42;;;;;;;3.25;2.83;;;9.40;99.90;;;;;;4132381;28;20049;-62
2023/12/08 01:34:44;;;;;;;2.40;2.20;;;9.40;99.90;;;;;;4149440;28;20385;-61
2023/12/08 01:36:46;;;;;;;3.92;2.50;;;9.40;99.90;;;;;;4149967;28;20050;-61
2023/12/08 01:38:48;;;;;;;2.47;1.90;;;9.40;99.90;;;;;;4132392;28;20042;-61
2023/12/08 01:40:51;;;;;;;3.25;2.08;;;9.40;99.90;;;;;;4149858;28;20205;-60
2023/12/08 01:42:53;;;;;;;3.45;2.53;;;9.40;99.90;;;;;;4149536;28;20425;-61
2023/12/08 01:44:55;;;;;;;3.35;2.03;;;9.40;99.90;;;;;;4149657;28;20124;-61
2023/12/08 01:46:58;;;;;;;5.38;2.30;;;9.40;99.90;;;;;;4132278;28;20050;-61
2023/12/08 01:49:01;;;;;;;3.70;2.70;;;9.50;99.90;;;;;;4149253;28;20453;-61
2023/12/08 01:51:04;;;;;;;3.30;2.05;;;9.50;99.90;;;;;;4150214;28;20050;-61
2023/12/08 01:53:07;;;;;;;3.60;2.10;;;9.50;99.90;;;;;;4149838;28;20103;-62
2023/12/08 01:55:10;;;;;;;3.22;2.25;;;9.60;99.90;;;;;;4149595;28;20460;-62
2023/12/08 01:57:12;;;;;;;4.32;2.40;;;9.50;99.90;;;;;;4149833;28;20473;-62
2023/12/08 01:59:15;;;;;;;4.10;2.55;;;9.60;99.90;;;;;;4149586;28;20085;-61
2023/12/08 02:01:18;;;;;;;2.60;2.38;;;9.60;99.90;;;;;;4149555;28;20050;-61
2023/12/08 02:03:22;;;;;;;3.80;2.10;;;9.60;99.90;;;;;;4148975;28;20037;-61
2023/12/08 02:05:27;;;;;;;6.50;2.47;;;9.70;99.90;;;;;;4132923;28;20133;-68
2023/12/08 02:07:30;;;;;;;;;;;9.70;99.90;;;;;;4150563;28;20057;-62
2023/12/08 02:09:32;;;;;;;5.43;2.50;;;9.70;99.90;;;;;;4149660;28;20388;-61
2023/12/08 02:11:34;;;;;;;5.05;2.53;;;9.80;99.90;;;;;;4149805;28;20128;-62
2023/12/08 02:13:37;;;;;;;5.85;2.95;;;9.80;99.90;;;;;;4149594;28;20130;-62
2023/12/08 02:15:39;;;;;;;4.32;2.78;;;9.80;99.90;;;;;;4149309;28;20104;-62
2023/12/08 02:17:41;;;;;;;4.40;2.58;;;9.80;99.90;;;;;;4149262;28;20404;-60
2023/12/08 02:19:45;;;;;;;6.20;2.40;;;9.80;99.90;;;;;;4149410;28;20052;-61
2023/12/08 02:21:48;;;;;;;5.35;2.45;;;9.80;99.90;;;;;;4150022;28;20556;-65
2023/12/08 02:23:52;;;;;;;3.65;2.60;;;9.80;99.90;;;;;;4150735;28;20129;-62
2023/12/08 02:25:54;;;;;;;4.53;2.65;;;9.70;99.90;;;;;;4150597;28;20481;-63
2023/12/08 02:27:56;;;;;;;4.05;2.63;;;9.80;99.90;;;;;;4149834;28;20125;-61
2023/12/08 02:29:58;;;;;;;6.28;3.15;;;9.90;99.90;;;;;;4149994;28;20046;-62
2023/12/08 02:32:05;;;;;;;4.03;2.80;;;9.90;99.90;;;;;;4149236;28;20045;-61
2023/12/08 02:34:09;;;;;;;9.20;3.30;;;9.90;99.90;;;;;;4149630;28;20049;-64
2023/12/08 02:36:13;;;;;;;8.02;3.47;;;9.90;99.90;;;;;;4149564;28;20050;-60
2023/12/08 02:38:20;;;;;;;5.50;3.40;;;9.90;99.90;;;;;;4149086;28;20444;-61
2023/12/08 02:40:24;;;;;;;8.07;3.00;;;9.90;99.90;;;;;;4148956;28;20041;-62
2023/12/08 02:42:26;;;;;;;4.97;2.78;;;9.90;99.90;;;;;;4149125;28;20049;-61
2023/12/08 02:44:28;;;;;;;8.95;3.20;;;9.80;99.90;;;;;;4148738;28;20104;-62
2023/12/08 02:46:31;;;;;;;4.63;2.50;;;9.80;99.90;;;;;;4148704;28;20104;-61
2023/12/08 02:48:33;;;;;;;8.55;3.38;;;9.90;99.90;;;;;;4148844;28;20046;-62
2023/12/08 02:50:35;;;;;;;8.85;3.58;;;9.90;99.90;;;;;;4148593;28;20052;-62
2023/12/08 02:52:38;;;;;;;12.98;3.67;;;9.80;99.90;;;;;;4148902;28;20052;-61
2023/12/08 02:54:40;;;;;;;9.85;2.80;;;9.90;99.90;;;;;;4148673;28;20045;-62
2023/12/08 02:56:43;;;;;;;6.55;3.00;;;9.90;99.90;;;;;;4148864;28;20129;-60
2023/12/08 02:58:45;;;;;;;7.38;3.20;;;10.00;99.90;;;;;;4148511;28;20070;-62
2023/12/08 03:00:47;;;;;;;7.07;3.35;;;9.90;99.90;;;;;;4131089;28;20047;-60
2023/12/08 03:02:49;;;;;;;10.38;3.83;;;9.90;99.90;;;;;;4148836;28;20115;-61
2023/12/08 03:04:52;;;;;;;11.00;3.65;;;9.90;99.90;;;;;;4148637;28;20043;-61
2023/12/08 03:06:54;;;;;;;8.18;3.45;;;9.90;99.90;;;;;;4148606;28;20153;-61
2023/12/08 03:08:56;;;;;;;10.00;3.97;;;9.80;99.90;;;;;;4148875;28;20045;-61
2023/12/08 03:10:58;;;;;;;11.23;3.95;;;9.80;99.90;;;;;;4131285;28;20062;-60
2023/12/08 03:13:01;;;;;;;12.23;4.18;;;9.70;99.90;;;;;;4148537;28;20053;-61
2023/12/08 03:15:04;;;;;;;10.70;3.15;;;9.70;99.90;;;;;;4148190;28;20151;-61
2023/12/08 03:17:07;;;;;;;9.85;3.50;;;9.70;99.90;;;;;;4130607;28;20117;-62
2023/12/08 03:19:09;;;;;;;8.23;2.80;;;9.90;99.90;;;;;;4148635;28;20062;-62
2023/12/08 03:21:20;;;;;;;9.00;4.07;;;9.90;99.90;;;;;;4148542;28;20444;-62
2023/12/08 03:23:22;;;;;;;11.88;4.40;;;10.00;99.90;;;;;;4148563;28;20444;-62
2023/12/08 03:25:24;;;;;;;16.95;5.05;;;10.00;99.90;;;;;;4130813;28;20449;-62
2023/12/08 03:27:26;;;;;;;11.40;4.40;;;10.00;99.90;;;;;;4148384;28;20042;-62
2023/12/08 03:29:30;;;;;;;15.27;4.93;;;9.90;99.90;;;;;;4148303;28;20080;-61
2023/12/08 03:31:32;;;;;;;18.92;5.28;;;9.90;99.90;;;;;;4147955;28;20485;-61
2023/12/08 03:33:34;;;;;;;14.50;4.70;;;10.00;99.90;;;;;;4130815;28;20101;-63
2023/12/08 03:35:37;;;;;;;16.30;5.40;;;10.00;99.90;;;;;;4148404;28;20125;-63
2023/12/08 03:37:38;;;;;;;14.35;4.85;;;10.00;99.90;;;;;;4148019;28;20081;-62
2023/12/08 03:39:43;;;;;;;15.82;4.95;;;10.10;99.90;;;;;;4148207;28;20053;-61
2023/12/08 03:41:45;;;;;;;15.65;5.13;;;10.10;99.90;;;;;;4148116;28;20050;-62
2023/12/08 03:43:47;;;;;;;15.68;4.97;;;10.10;99.90;;;;;;4147999;28;20474;-62
2023/12/08 03:45:51;;;;;;;15.73;4.63;;;10.10;99.90;;;;;;4147914;28;20046;-65
2023/12/08 03:47:53;;;;;;;12.60;5.15;;;10.20;99.90;;;;;;4148944;28;20050;-62
2023/12/08 03:49:55;;;;;;;15.07;5.38;;;10.20;99.90;;;;;;4147533;28;20492;-62
2023/12/08 03:51:57;;;;;;;15.05;5.03;;;10.10;99.90;;;;;;4148113;28;20429;-63
2023/12/08 03:53:59;;;;;;;14.02;5.20;;;10.20;99.90;;;;;;4147900;28;20141;-62
2023/12/08 03:56:02;;;;;;;13.98;4.50;;;10.10;99.90;;;;;;4147761;28;20045;-62
2023/12/08 03:58:04;;;;;;;19.25;5.55;;;10.20;99.90;;;;;;4147653;28;20092;-62
2023/12/08 04:00:10;;;;;;;18.70;5.18;;;10.20;99.90;;;;;;4147428;28;20057;-62
2023/12/08 04:02:14;;;;;;;14.68;4.95;;;10.20;99.90;;;;;;4147994;28;20073;-61
2023/12/08 04:04:16;;;;;;;17.15;4.90;;;10.20;99.90;;;;;;4147623;28;20593;-62
2023/12/08 04:06:28;;;;;;;18.65;6.03;;;10.20;99.90;;;;;;4148553;28;20412;-60
2023/12/08 04:08:30;;;;;;;15.52;4.45;;;10.30;99.90;;;;;;4148443;28;20077;-61
2023/12/08 04:10:32;;;;;;;20.83;5.60;;;10.30;99.90;;;;;;4147930;28;20050;-60
2023/12/08 04:12:34;;;;;;;19.23;4.95;;;10.20;99.90;;;;;;4147990;28;20042;-66
2023/12/08 04:14:36;;;;;;;19.48;7.03;;;10.20;99.90;;;;;;4147336;28;20046;-62
2023/12/08 04:16:38;;;;;;;22.92;5.90;;;10.10;99.90;;;;;;4147603;28;20050;-63
2023/12/08 04:18:41;;;;;;;18.80;5.45;;;10.10;99.90;;;;;;4147560;28;20080;-62
2023/12/08 04:20:44;;;;;;;17.33;5.55;;;10.20;99.90;;;;;;4130011;28;20046;-61
2023/12/08 04:22:46;;;;;;;20.92;5.90;;;10.20;99.90;;;;;;4147463;28;20049;-62
2023/12/08 04:24:48;;;;;;;18.27;5.85;;;10.20;99.90;;;;;;4147683;28;20179;-62
2023/12/08 04:26:50;;;;;;;23.35;6.53;;;10.20;99.90;;;;;;4147605;28;20046;-62
2023/12/08 04:28:52;;;;;;;24.38;6.63;;;10.30;99.90;;;;;;4147090;28;20124;-61
2023/12/08 04:30:54;;;;;;;30.77;6.72;;;10.30;99.90;;;;;;4129978;28;20050;-62
2023/12/08 04:32:57;;;;;;;15.65;5.25;;;10.20;99.90;;;;;;4147781;28;20054;-63
2023/12/08 04:35:00;;;;;;;24.17;6.88;;;10.20;99.90;;;;;;4147460;28;20485;-63
2023/12/08 04:37:04;;;;;;;22.60;5.93;;;10.20;99.90;;;;;;4147605;28;20045;-61
2023/12/08 04:39:08;;;;;;;31.88;7.15;;;10.30;99.90;;;;;;4147606;28;20085;-61
2023/12/08 04:41:10;;;;;;;20.77;5.32;;;10.30;99.90;;;;;;4147502;28;20053;-62
2023/12/08 04:43:12;;;;;;;18.52;5.45;;;10.30;99.90;;;;;;4147331;28;20064;-61
2023/12/08 04:45:14;;;;;;;29.52;5.93;;;10.20;99.90;;;;;;4147611;28;20037;-66
2023/12/08 04:47:16;;;;;;;26.02;7.80;;;10.20;99.90;;;;;;4148750;28;20413;-62
2023/12/08 04:49:18;;;;;;;24.08;6.32;;;10.10;99.90;;;;;;4149166;28;20100;-69
2023/12/08 04:51:22;;;;;;;23.30;6.38;;;10.20;99.90;;;;;;4148768;28;20077;-62
2023/12/08 04:53:24;;;;;;;20.45;6.55;;;10.20;99.90;;;;;;4147502;28;20046;-61
2023/12/08 04:55:26;;;;;;;21.42;6.32;;;10.20;99.90;;;;;;4147285;28;20046;-62
2023/12/08 04:57:29;;;;;;;25.63;7.30;;;10.10;99.90;;;;;;4147375;28;20050;-62
2023/12/08 04:59:31;;;;;;;24.27;6.65;;;10.10;99.90;;;;;;4147323;28;20124;-63
2023/12/08 05:01:35;;;;;;;22.55;6.80;;;10.10;99.90;;;;;;4147731;28;20633;-61
2023/12/08 05:03:37;;;;;;;26.65;6.47;;;10.10;99.90;;;;;;4150260;28;20048;-62
2023/12/08 05:05:39;;;;;;;22.88;6.00;;;10.10;99.90;;;;;;4150419;28;20412;-62
2023/12/08 05:07:43;;;;;;;22.23;5.97;;;10.20;99.90;;;;;;4150564;28;20050;-61
2023/12/08 05:09:45;;;;;;;23.33;6.63;;;10.30;99.90;;;;;;4150157;28;20101;-62
2023/12/08 05:11:47;;;;;;;26.23;6.88;;;10.20;99.90;;;;;;4149816;28;20046;-62
2023/12/08 05:13:49;;;;;;;20.75;6.47;;;10.20;99.90;;;;;;4150511;28;20347;-62
2023/12/08 05:15:51;;;;;;;18.90;6.28;;;10.30;99.90;;;;;;4150641;28;20069;-62
2023/12/08 05:17:53;;;;;;;33.88;7.47;;;10.20;99.90;;;;;;4150379;28;20049;-62
2023/12/08 05:19:55;;;;;;;29.45;6.78;;;10.10;99.90;;;;;;4150181;28;20045;-61
2023/12/08 05:21:57;;;;;;;31.50;7.88;;;10.10;99.90;;;;;;4150174;28;20516;-62
2023/12/08 05:24:01;;;;;;;32.65;7.07;;;10.10;99.90;;;;;;4150201;28;20132;-61
2023/12/08 05:26:04;;;;;;;26.10;7.75;;;10.20;99.90;;;;;;4150016;28;20045;-63
2023/12/08 05:28:06;;;;;;;32.78;7.60;;;10.20;99.90;;;;;;4150563;28;20077;-61
2023/12/08 05:30:09;;;;;;;27.15;7.55;;;10.30;99.90;;;;;;4151514;28;20045;-64
2023/12/08 05:32:12;;;;;;;28.20;8.40;;;10.30;99.90;;;;;;4152088;28;20053;-62
2023/12/08 05:34:14;;;;;;;27.42;8.80;;;10.20;99.90;;;;;;4150269;28;20053;-61
2023/12/08 05:36:17;;;;;;;23.40;7.22;;;10.30;99.90;;;;;;4150187;28;20046;-62
2023/12/08 05:38:19;;;;;;;26.58;8.10;;;10.20;99.90;;;;;;4150021;28;20049;-62
2023/12/08 05:40:23;;;;;;;27.80;7.57;;;10.30;99.90;;;;;;4149717;28;20501;-61
2023/12/08 05:42:26;;;;;;;28.70;8.05;;;10.20;99.90;;;;;;4150295;28;20441;-62
2023/12/08 05:44:28;;;;;;;21.30;5.88;;;10.20;99.90;;;;;;4150071;28;20049;-61
2023/12/08 05:46:29;;;;;;;18.25;5.95;;;10.30;99.90;;;;;;4149851;28;20056;-62
2023/12/08 05:48:31;;;;;;;30.23;7.35;;;10.40;99.90;;;;;;4149886;28;20077;-61
2023/12/08 05:50:34;;;;;;;34.58;7.30;;;10.50;99.90;;;;;;4150306;28;20485;-67
2023/12/08 05:52:36;;;;;;;19.10;6.57;;;10.30;99.90;;;;;;4150589;28;20084;-62
2023/12/08 05:54:38;;;;;;;32.63;8.20;;;10.40;99.90;;;;;;4149864;28;20072;-62
2023/12/08 05:56:42;;;;;;;29.27;6.25;;;10.40;99.90;;;;;;4149392;28;20123;-61
2023/12/08 05:58:44;;;;;;;23.70;6.80;;;10.40;99.90;;;;;;4149223;28;20053;-61
2023/12/08 06:00:46;;;;;;;34.45;7.43;;;10.50;99.90;;;;;;4132181;28;20055;-62
2023/12/08 06:02:48;;;;;;;29.58;8.13;;;10.40;99.90;;;;;;4149609;28;20507;-63
2023/12/08 06:04:50;;;;;;;29.42;8.20;;;10.40;99.90;;;;;;4150955;28;20049;-65
2023/12/08 06:06:53;;;;;;;26.42;7.13;;;10.30;99.90;;;;;;4132951;28;20046;-61
2023/12/08 06:08:56;;;;;;;23.52;7.13;;;10.40;99.90;;;;;;4149888;28;20052;-61
2023/12/08 06:10:58;;;;;;;22.40;6.65;;;10.40;99.90;;;;;;4149166;28;20049;-61
2023/12/08 06:13:01;;;;;;;27.42;7.30;;;10.40;99.90;;;;;;4149195;28;20077;-62
2023/12/08 06:15:05;;;;;;;22.20;6.03;;;10.50;99.90;;;;;;4149924;28;20056;-62
2023/12/08 06:17:07;;;;;;;23.85;6.85;;;10.40;99.90;;;;;;4149498;28;20041;-62
2023/12/08 06:19:09;;;;;;;30.60;7.85;;;10.40;99.90;;;;;;4149443;28;20404;-62
2023/12/08 06:21:12;;;;;;;19.17;5.60;;;10.40;99.90;;;;;;4131917;28;20057;-62
2023/12/08 06:23:14;;;;;;;23.90;6.25;;;10.40;99.90;;;;;;4149268;28;20049;-62
2023/12/08 06:25:16;;;;;;;26.05;6.32;;;10.40;99.90;;;;;;4148750;28;20085;-61
2023/12/08 06:27:18;;;;;;;19.30;5.65;;;10.40;99.90;;;;;;4149227;28;20128;-62
2023/12/08 06:29:22;;;;;;;18.23;5.57;;;10.40;99.90;;;;;;4149124;28;20439;-61
2023/12/08 06:31:24;;;;;;;22.73;5.75;;;10.40;99.90;;;;;;4149307;28;20052;-62
2023/12/08 06:33:26;;;;;;;27.48;5.93;;;10.40;99.90;;;;;;4149086;28;20046;-61
2023/12/08 06:35:28;;;;;;;22.60;5.60;;;10.50;99.90;;;;;;4148812;28;20057;-61
2023/12/08 06:37:30;;;;;;;26.52;8.27;;;10.50;99.90;;;;;;4149034;28;20125;-61
2023/12/08 06:39:32;;;;;;;26.67;7.40;;;10.50;99.90;;;;;;4148906;28;20398;-61
2023/12/08 06:41:34;;;;;;;26.00;7.57;;;10.50;99.90;;;;;;4148921;28;20050;-61
2023/12/08 06:43:36;;;;;;;25.00;5.85;;;10.50;99.90;;;;;;4149134;28;20049;-62
2023/12/08 06:45:39;;;;;;;26.70;7.72;;;10.40;99.90;;;;;;4148709;28;20050;-61
2023/12/08 06:47:41;;;;;;;21.63;6.88;;;10.40;99.90;;;;;;4148613;28;20046;-62
2023/12/08 06:49:44;;;;;;;18.75;6.25;;;10.30;99.90;;;;;;4148737;28;20133;-62
2023/12/08 06:51:46;;;;;;;23.90;7.05;;;10.20;99.90;;;;;;4148859;28;20504;-62
2023/12/08 06:53:48;;;;;;;25.10;7.35;;;10.20;99.90;;;;;;4148215;28;20042;-62
2023/12/08 06:55:52;;;;;;;16.35;5.57;;;10.20;99.90;;;;;;4148917;28;20393;-64
2023/12/08 06:57:54;;;;;;;18.30;6.70;;;10.30;99.90;;;;;;4131086;28;20041;-61
2023/12/08 06:59:57;;;;;;;21.02;6.85;;;10.30;99.90;;;;;;4148441;28;20061;-62
2023/12/08 07:02:02;;;;;;;19.33;6.20;;;10.30;99.90;;;;;;4148821;28;20477;-62
2023/12/08 07:04:06;;;;;;;21.60;7.13;;;10.30;99.90;;;;;;4148737;28;20042;-61
2023/12/08 07:06:09;;;;;;;21.70;7.38;;;10.20;99.90;;;;;;4148742;28;20493;-61
2023/12/08 07:08:11;;;;;;;22.75;7.72;;;10.20;99.90;;;;;;4148708;28;20069;-66
2023/12/08 07:10:14;;;;;;;25.33;8.27;;;10.10;99.90;;;;;;4148867;28;20152;-62
2023/12/08 07:12:17;;;;;;;28.13;8.27;;;10.10;99.90;;;;;;4148910;28;20490;-62
2023/12/08 07:14:20;;;;;;;21.15;8.27;;;10.10;99.90;;;;;;4148784;28;20408;-67
2023/12/08 07:16:22;;;;;;;19.90;7.53;;;10.00;99.90;;;;;;4148788;28;20061;-62
2023/12/08 07:18:26;;;;;;;18.50;6.72;;;10.00;99.90;;;;;;4148626;28;20432;-61
2023/12/08 07:20:29;;;;;;;24.10;7.45;;;10.00;99.90;;;;;;4148185;28;20046;-62
2023/12/08 07:22:32;;;;;;;21.50;7.63;;;10.00;99.90;;;;;;4130656;28;20046;-61
2023/12/08 07:24:37;;;;;;;18.25;7.10;;;10.10;99.90;;;;;;4147751;28;20042;-64
2023/12/08 07:26:40;;;;;;;25.15;7.85;;;10.20;99.90;;;;;;4148196;28;20133;-62
2023/12/08 07:28:42;;;;;;;18.42;7.25;;;10.30;99.90;;;;;;4148130;28;20412;-61
2023/12/08 07:30:44;;;;;;;23.67;8.10;;;10.20;99.90;;;;;;4148345;28;20481;-62
2023/12/08 07:32:46;;;;;;;24.05;7.72;;;10.10;99.90;;;;;;4147936;28;20069;-62
2023/12/08 07:34:52;;;;;;;24.45;7.90;;;10.20;99.90;;;;;;4148273;28;20551;-63
2023/12/08 07:36:54;;;;;;;23.73;7.28;;;10.20;99.90;;;;;;4147930;28;20466;-62
2023/12/08 07:38:56;;;;;;;21.95;7.63;;;10.20;99.90;;;;;;4131205;28;20109;-62
2023/12/08 07:40:58;;;;;;;26.17;7.72;;;10.20;99.90;;;;;;4148307;28;20049;-62
2023/12/08 07:43:01;;;;;;;20.73;7.63;;;10.20;99.90;;;;;;4147992;28;20417;-62
2023/12/08 07:45:04;;;;;;;19.77;7.50;;;10.20;99.90;;;;;;4147979;28;20469;-62
2023/12/08 07:47:07;;;;;;;22.40;7.55;;;10.20;99.90;;;;;;4148210;28;20056;-62
2023/12/08 07:49:09;;;;;;;25.40;9.45;;;10.30;99.90;;;;;;4148191;28;20512;-61
2023/12/08 07:51:12;;;;;;;24.13;8.40;;;10.20;99.90;;;;;;4147655;28;20059;-62
2023/12/08 07:53:14;;;;;;;17.65;8.25;;;10.30;99.90;;;;;;4147823;28;20045;-61
2023/12/08 07:55:17;;;;;;;21.58;7.95;;;10.30;99.90;;;;;;4147824;28;20062;-67
2023/12/08 07:57:19;;;;;;;26.50;9.93;;;10.30;99.90;;;;;;4148099;28;20452;-60
2023/12/08 07:59:21;;;;;;;30.02;9.32;;;10.20;99.90;;;;;;4147775;28;20050;-62
2023/12/08 08:01:23;;;;;;;22.75;8.30;;;10.20;99.90;;;;;;4147980;28;20074;-62
2023/12/08 08:03:26;;;;;;;23.05;9.05;;;10.20;99.90;;;;;;4147635;28;20045;-62
2023/12/08 08:05:28;;;;;;;21.85;8.02;;;10.40;99.90;;;;;;4129843;28;20113;-62
2023/12/08 08:07:31;;;;;;;18.60;7.28;;;10.40;99.90;;;;;;4147566;28;20072;-62
2023/12/08 08:09:33;;;;;;;23.08;9.95;;;10.30;99.90;;;;;;4147710;28;20078;-60
2023/12/08 08:11:35;;;;;;;23.38;8.35;;;10.40;99.90;;;;;;4147905;28;20050;-60
2023/12/08 08:13:38;;;;;;;20.83;10.65;;;10.40;99.90;;;;;;4147730;28;20046;-61
2023/12/08 08:15:40;;;;;;;24.17;8.85;;;10.40;99.90;;;;;;4130148;28;20038;-61
2023/12/08 08:17:42;;;;;;;26.40;9.38;;;10.30;99.90;;;;;;4147807;28;20453;-60
2023/12/08 08:19:44;;;;;;;25.20;10.07;;;10.30;99.90;;;;;;4147485;28;20108;-61
2023/12/08 08:21:46;;;;;;;25.00;9.23;;;10.30;99.90;;;;;;4147538;28;20437;-60
2023/12/08 08:24:09;;;;;;;23.52;9.80;;;10.30;99.90;;;;;;4147565;28;20125;-61
2023/12/08 08:26:12;;;;;;;21.63;10.00;;;10.30;99.90;;;;;;4147700;28;20112;-61
2023/12/08 08:28:14;;;;;;;25.17;9.65;;;10.40;99.90;;;;;;4147364;28;20050;-61
2023/12/08 08:30:16;;;;;;;22.85;8.30;;;10.30;99.90;;;;;;4147537;28;20069;-61
2023/12/08 08:32:18;;;;;;;24.65;9.38;;;10.20;99.90;;;;;;4147429;28;20070;-61
2023/12/08 08:34:20;;;;;;;28.33;8.35;;;10.30;99.90;;;;;;4147081;28;20504;-65
2023/12/08 08:36:22;;;;;;;24.55;8.98;;;10.30;99.90;;;;;;4131587;28;20480;-61
2023/12/08 08:38:24;;;;;;;24.73;9.77;;;10.40;99.90;;;;;;4150701;28;20053;-61
2023/12/08 08:40:27;;;;;;;18.30;7.68;;;10.40;99.90;;;;;;4150821;28;20116;-61
2023/12/08 08:42:29;;;;;;;24.40;8.90;;;10.40;99.90;;;;;;4150890;28;20054;-60
2023/12/08 08:44:32;;;;;;;26.85;8.20;;;10.40;99.90;;;;;;4150771;28;20053;-61
2023/12/08 08:46:34;;;;;;;22.25;8.38;;;10.30;99.90;;;;;;4150492;28;20050;-61
2023/12/08 08:48:36;;;;;;;22.60;8.02;;;10.50;99.90;;;;;;4150792;28;20042;-61
2023/12/08 08:50:38;;;;;;;21.48;8.75;;;10.50;99.90;;;;;;4151217;28;20046;-62
2023/12/08 08:52:50;;;;;;;25.58;8.43;;;10.50;99.90;;;;;;4150676;28;20050;-62
2023/12/08 08:54:53;;;;;;;20.77;8.20;;;10.40;99.90;;;;;;4150678;28;20133;-62
2023/12/08 08:56:57;;;;;;;32.90;9.30;;;10.40;99.90;;;;;;4150666;28;20412;-61
2023/12/08 08:58:59;;;;;;;26.25;9.07;;;10.50;99.90;;;;;;4150202;28;20046;-61
2023/12/08 09:01:01;;;;;;;24.88;8.63;;;10.50;99.90;;;;;;4150564;28;20104;-61
2023/12/08 09:03:04;;;;;;;23.73;7.78;;;10.50;99.90;;;;;;4150608;28;20234;-61
2023/12/08 09:05:07;;;;;;;26.52;9.23;;;10.60;99.90;;;;;;4150666;28;20068;-61
2023/12/08 09:07:10;;;;;;;24.92;8.10;;;10.50;99.90;;;;;;4150406;28;20069;-61
2023/12/08 09:09:12;;;;;;;28.40;9.55;;;10.60;99.90;;;;;;4150132;28;20116;-61
2023/12/08 09:11:14;;;;;;;29.48;9.35;;;10.70;99.90;;;;;;4133136;28;20076;-61
2023/12/08 09:13:17;;;;;;;31.30;8.93;;;10.60;99.90;;;;;;4150212;28;20045;-61
2023/12/08 09:15:22;;;;;;;32.78;8.35;;;10.70;99.90;;;;;;4150502;28;20053;-62
2023/12/08 09:17:24;;;;;;;26.63;9.07;;;10.80;99.90;;;;;;4150335;28;20428;-62
2023/12/08 09:19:26;;;;;;;25.25;7.63;;;10.90;99.90;;;;;;4150262;28;20053;-63
2023/12/08 09:21:29;;;;;;;26.35;8.77;;;10.90;99.90;;;;;;4150610;28;20069;-63
2023/12/08 09:23:31;;;;;;;25.02;8.25;;;11.00;99.90;;;;;;4150914;28;20107;-61
2023/12/08 09:25:34;;;;;;;33.08;10.27;;;11.00;99.90;;;;;;4150571;28;20050;-62
2023/12/08 09:27:36;;;;;;;31.85;9.02;;;11.00;99.90;;;;;;4150444;28;20133;-62
2023/12/08 09:29:40;;;;;;;32.72;10.25;;;11.00;99.90;;;;;;4150020;28;20543;-62
2023/12/08 09:31:42;;;;;;;33.63;9.55;;;11.00;99.90;;;;;;4150009;28;20042;-61
2023/12/08 09:33:44;;;;;;;29.73;8.55;;;11.20;99.90;;;;;;4132111;28;20056;-62
2023/12/08 09:35:46;;;;;;;31.10;8.95;;;11.20;99.90;;;;;;4149773;28;20476;-62
2023/12/08 09:37:48;;;;;;;38.80;11.35;;;11.20;99.90;;;;;;4149865;28;20066;-62
2023/12/08 09:39:51;;;;;;;30.92;10.38;;;11.20;99.90;;;;;;4149730;28;20508;-62
2023/12/08 09:41:59;;;;;;;36.58;10.00;;;11.20;99.90;;;;;;4149818;28;20519;-62
2023/12/08 09:44:09;;;;;;;34.60;9.48;;;11.30;99.90;;;;;;4149944;28;20386;-62
2023/12/08 09:46:15;;;;;;;33.17;9.88;;;11.30;99.90;;;;;;4149559;28;20136;-61
2023/12/08 09:48:20;;;;;;;35.80;10.30;;;11.30;99.90;;;;;;4148837;28;20052;-62
2023/12/08 09:50:23;;;;;;;38.83;12.48;;;11.30;99.90;;;;;;4149941;28;20080;-61
2023/12/08 09:52:25;;;;;;;33.17;10.55;;;11.30;99.90;;;;;;4149713;28;20062;-62
2023/12/08 09:54:28;;;;;;;40.88;15.77;;;11.30;99.90;;;;;;4149609;28;20052;-62
2023/12/08 09:56:33;;;;;;;41.47;12.80;;;11.30;99.90;;;;;;4149744;28;20049;-62
2023/12/08 09:58:36;;;;;;;35.13;13.38;;;11.30;99.90;;;;;;4149749;28;20073;-61
2023/12/08 10:00:39;;;;;;;28.98;9.43;;;11.30;99.90;;;;;;4150003;28;20046;-62
2023/12/08 10:02:42;;;;;;;28.33;8.57;;;11.30;99.90;;;;;;4132914;28;20046;-67
2023/12/08 10:04:45;;;;;;;25.63;7.72;;;11.30;99.90;;;;;;4150056;28;20050;-66
2023/12/08 10:06:50;;;;;;;37.38;9.65;;;11.50;99.90;;;;;;4150082;28;20046;-66
2023/12/08 10:08:54;;;;;;;33.40;8.20;;;11.50;99.90;;;;;;4149574;28;20540;-62
2023/12/08 10:10:56;;;;;;;28.17;8.60;;;11.50;99.90;;;;;;4149470;28;20520;-61
2023/12/08 10:12:58;;;;;;;32.50;8.70;;;11.50;99.90;;;;;;4149439;28;20114;-63
2023/12/08 10:15:01;;;;;;;29.50;8.05;;;11.50;99.90;;;;;;4149537;28;20050;-62
2023/12/08 10:17:03;;;;;;;32.65;7.88;;;11.50;99.90;;;;;;4148985;28;20350;-62
2023/12/08 10:19:09;;;;;;;28.88;7.75;;;11.50;99.90;;;;;;4149101;28;20042;-61
2023/12/08 10:21:16;;;;;;;26.35;7.57;;;11.40;99.90;;;;;;4149334;28;20046;-61
2023/12/08 10:23:19;;;;;;;38.28;8.48;;;11.50;99.90;;;;;;4149287;28;20045;-62
2023/12/08 10:25:23;;;;;;;34.80;7.88;;;11.50;99.90;;;;;;4149378;28;20073;-61
2023/12/08 10:27:26;;;;;;;25.27;8.15;;;11.50;99.90;;;;;;4149479;28;20111;-62
2023/12/08 10:29:30;;;;;;;23.52;6.47;;;11.50;99.90;;;;;;4149258;28;20077;-62
2023/12/08 10:31:32;;;;;;;29.48;7.75;;;11.50;99.90;;;;;;4148903;28;20050;-62
2023/12/08 10:33:35;;;;;;;33.88;7.60;;;11.40;99.90;;;;;;4149302;28;20108;-61
2023/12/08 10:35:39;;;;;;;31.08;7.75;;;11.40;99.90;;;;;;4148914;28;20116;-62